createdAt,value
2022-11-13T00:01:23.736Z,40.87
2022-11-13T00:03:50.975Z,43.00
2022-11-13T00:06:19.717Z,42.40
2022-11-13T00:08:47.903Z,41.07
2022-11-13T00:11:19.880Z,43.00
2022-11-13T00:13:48.571Z,40.17
2022-11-13T00:16:20.088Z,38.23
2022-11-13T00:18:48.102Z,38.07
2022-11-13T00:21:18.739Z,34.50
2022-11-13T00:23:45.892Z,40.53
2022-11-13T00:26:16.457Z,38.20
2022-11-13T00:28:44.183Z,35.23
2022-11-13T00:31:15.129Z,33.60
2022-11-13T00:36:29.450Z,34.20
2022-11-13T00:38:56.926Z,35.73
2022-11-13T00:41:24.686Z,33.27
2022-11-13T00:43:52.196Z,36.07
2022-11-13T00:46:19.720Z,34.35
2022-11-13T00:48:46.887Z,31.90
2022-11-13T00:51:13.992Z,35.60
2022-11-13T00:53:40.995Z,34.13
2022-11-13T00:56:08.296Z,34.93
2022-11-13T00:58:35.242Z,33.50
2022-11-13T01:01:12.879Z,39.03
2022-11-13T01:03:40.015Z,34.73
2022-11-13T01:06:21.489Z,35.17
2022-11-13T01:08:48.739Z,35.53
2022-11-13T01:11:20.190Z,37.93
2022-11-13T01:13:49.933Z,40.27
2022-11-13T01:16:21.036Z,35.90
2022-11-13T01:18:48.282Z,34.93
2022-11-13T01:21:19.450Z,39.40
2022-11-13T01:23:46.719Z,38.10
2022-11-13T01:26:24.234Z,39.93
2022-11-13T01:28:51.426Z,40.50
2022-11-13T01:31:23.409Z,39.40
2022-11-13T01:33:50.537Z,36.47
2022-11-13T01:36:24.499Z,38.85
2022-11-13T01:38:52.330Z,36.03
2022-11-13T01:41:30.134Z,37.90
2022-11-13T01:43:58.067Z,40.10
2022-11-13T01:46:33.893Z,42.10
2022-11-13T01:49:10.029Z,37.40
2022-11-13T01:51:49.278Z,36.90
2022-11-13T01:54:33.808Z,39.43
2022-11-13T01:57:02.761Z,39.03
2022-11-13T01:59:38.769Z,38.23
2022-11-13T02:02:06.572Z,40.87
2022-11-13T02:04:34.149Z,35.17
2022-11-13T02:07:06.062Z,39.20
2022-11-13T02:09:42.847Z,37.53
2022-11-13T02:12:17.133Z,41.30
2022-11-13T02:14:52.695Z,37.33
2022-11-13T02:17:43.199Z,36.73
2022-11-13T02:20:11.348Z,40.37
2022-11-13T02:23:09.916Z,36.60
2022-11-13T02:25:38.610Z,38.90
2022-11-13T02:28:05.555Z,38.90
2022-11-13T02:30:35.221Z,33.93
2022-11-13T02:33:02.476Z,37.37
2022-11-13T02:35:37.638Z,39.10
2022-11-13T02:38:06.380Z,39.03
2022-11-13T02:40:34.072Z,38.97
2022-11-13T02:43:01.147Z,37.60
2022-11-13T02:45:28.127Z,36.57
2022-11-13T02:47:55.178Z,36.97
2022-11-13T02:50:22.349Z,36.60
2022-11-13T02:52:49.339Z,38.13
2022-11-13T02:55:16.445Z,35.13
2022-11-13T02:57:43.365Z,38.80
2022-11-13T03:00:14.074Z,40.70
2022-11-13T03:02:42.024Z,39.33
2022-11-13T03:05:12.883Z,43.80
2022-11-13T03:07:41.122Z,37.73
2022-11-13T03:10:09.961Z,38.97
2022-11-13T03:12:37.386Z,39.57
2022-11-13T03:15:06.140Z,39.57
2022-11-13T03:17:33.990Z,39.03
2022-11-13T03:20:00.947Z,39.60
2022-11-13T03:22:28.297Z,41.60
2022-11-13T03:24:55.235Z,37.67
2022-11-13T03:27:22.408Z,37.93
2022-11-13T03:29:49.515Z,37.57
2022-11-13T03:32:16.555Z,39.30
2022-11-13T03:34:43.524Z,42.27
2022-11-13T03:37:10.639Z,40.45
2022-11-13T03:39:37.588Z,43.70
2022-11-13T03:42:04.568Z,42.53
2022-11-13T03:44:31.531Z,44.57
2022-11-13T03:46:58.500Z,45.13
2022-11-13T03:49:25.463Z,37.90
2022-11-13T03:51:52.415Z,45.27
2022-11-13T03:54:19.433Z,44.93
2022-11-13T03:56:46.431Z,42.73
2022-11-13T03:59:13.423Z,43.43
2022-11-13T04:01:40.412Z,37.87
2022-11-13T04:04:07.381Z,41.30
2022-11-13T04:06:34.403Z,42.33
2022-11-13T04:09:01.370Z,40.63
2022-11-13T04:11:28.468Z,42.43
2022-11-13T04:13:55.413Z,42.27
2022-11-13T04:16:22.362Z,43.57
2022-11-13T04:18:49.310Z,45.27
2022-11-13T04:21:16.247Z,42.00
2022-11-13T04:23:43.253Z,44.27
2022-11-13T04:26:10.159Z,38.77
2022-11-13T04:28:37.140Z,43.67
2022-11-13T04:31:04.111Z,40.33
2022-11-13T04:33:31.100Z,41.67
2022-11-13T04:35:58.051Z,41.43
2022-11-13T04:38:25.128Z,39.77
2022-11-13T04:41:15.370Z,37.63
2022-11-13T04:43:42.391Z,40.33
2022-11-13T04:46:09.371Z,37.97
2022-11-13T04:48:36.432Z,41.67
2022-11-13T04:51:03.572Z,38.93
2022-11-13T04:53:30.535Z,39.50
2022-11-13T04:55:57.579Z,38.60
2022-11-13T04:58:24.612Z,38.57
2022-11-13T05:00:51.587Z,42.00
2022-11-13T05:03:18.601Z,40.37
2022-11-13T05:05:45.666Z,41.87
2022-11-13T05:08:12.841Z,41.07
2022-11-13T05:10:39.922Z,41.60
2022-11-13T05:13:06.864Z,42.17
2022-11-13T05:15:33.865Z,44.37
2022-11-13T05:18:00.875Z,44.40
2022-11-13T05:20:27.882Z,47.00
2022-11-13T05:22:54.797Z,40.57
2022-11-13T05:25:21.780Z,42.17
2022-11-13T05:27:48.702Z,41.77
2022-11-13T05:30:16.387Z,50.37
2022-11-13T05:32:43.392Z,45.93
2022-11-13T05:35:10.380Z,48.43
2022-11-13T05:37:37.361Z,45.47
2022-11-13T05:40:04.953Z,42.50
2022-11-13T05:42:32.017Z,43.67
2022-11-13T05:44:58.947Z,43.00
2022-11-13T05:47:25.905Z,42.60
2022-11-13T05:49:52.842Z,42.13
2022-11-13T05:52:19.801Z,41.27
2022-11-13T05:54:46.760Z,47.10
2022-11-13T05:57:13.686Z,43.40
2022-11-13T05:59:40.693Z,42.03
2022-11-13T06:02:07.733Z,39.43
2022-11-13T06:04:34.802Z,42.37
2022-11-13T06:07:01.764Z,44.80
2022-11-13T06:09:28.739Z,37.80
2022-11-13T06:11:55.629Z,44.17
2022-11-13T06:14:22.572Z,44.13
2022-11-13T06:16:49.505Z,38.93
2022-11-13T06:19:16.452Z,45.30
2022-11-13T06:21:43.478Z,43.63
2022-11-13T06:24:12.577Z,42.03
2022-11-13T06:26:39.777Z,42.13
2022-11-13T06:29:10.191Z,42.50
2022-11-13T06:31:37.798Z,45.87
2022-11-13T06:34:06.222Z,46.50
2022-11-13T06:36:37.062Z,44.93
2022-11-13T06:39:09.256Z,41.83
2022-11-13T06:41:38.500Z,43.33
2022-11-13T06:44:05.618Z,44.10
2022-11-13T06:46:32.778Z,46.40
2022-11-13T06:49:00.067Z,46.73
2022-11-13T06:51:30.950Z,46.37
2022-11-13T06:53:58.583Z,46.57
2022-11-13T06:56:26.819Z,46.87
2022-11-13T06:58:55.953Z,44.37
2022-11-13T07:01:25.577Z,44.33
2022-11-13T07:03:53.217Z,42.40
2022-11-13T07:06:23.230Z,41.03
2022-11-13T07:08:50.916Z,40.77
2022-11-13T07:11:21.976Z,43.25
2022-11-13T07:13:49.861Z,45.23
2022-11-13T07:16:18.477Z,42.10
2022-11-13T07:18:54.049Z,40.70
2022-11-13T07:21:21.853Z,36.13
2022-11-13T07:23:50.277Z,37.20
2022-11-13T07:26:17.469Z,39.33
2022-11-13T07:28:44.650Z,37.23
2022-11-13T07:31:13.968Z,40.43
2022-11-13T07:33:41.019Z,38.57
2022-11-13T07:36:08.994Z,34.67
2022-11-13T07:38:36.748Z,37.77
2022-11-13T07:41:03.806Z,38.83
2022-11-13T07:43:30.886Z,31.97
2022-11-13T07:46:01.652Z,36.10
2022-11-13T07:48:29.765Z,33.60
2022-11-13T07:51:02.559Z,32.27
2022-11-13T07:53:30.294Z,30.77
2022-11-13T07:56:01.834Z,32.17
2022-11-13T07:58:29.307Z,33.57
2022-11-13T08:01:03.830Z,32.70
2022-11-13T08:03:31.438Z,30.20
2022-11-13T08:06:05.213Z,35.17
2022-11-13T08:08:32.666Z,34.50
2022-11-13T08:11:07.017Z,34.05
2022-11-13T08:13:34.911Z,32.03
2022-11-13T08:16:03.334Z,31.80
2022-11-13T08:18:31.813Z,35.80
2022-11-13T08:21:02.823Z,31.60
2022-11-13T08:23:30.277Z,32.85
2022-11-13T08:25:57.333Z,36.75
2022-11-13T08:28:24.656Z,30.48
2022-11-13T08:30:51.580Z,29.60
2022-11-13T08:33:19.007Z,32.47
2022-11-13T08:35:54.495Z,25.95
2022-11-13T08:38:21.726Z,28.87
2022-11-13T08:40:49.329Z,28.70
2022-11-13T08:43:16.628Z,26.70
2022-11-13T08:45:47.470Z,19.98
2022-11-13T08:48:15.032Z,26.60
2022-11-13T08:50:42.040Z,21.10
2022-11-13T08:53:09.180Z,25.50
2022-11-13T08:55:36.404Z,20.20
2022-11-13T08:58:04.647Z,19.17
2022-11-13T09:00:33.289Z,18.93
2022-11-13T09:03:01.510Z,21.08
2022-11-13T09:05:28.489Z,22.47
2022-11-13T09:08:01.204Z,26.03
2022-11-13T09:10:28.755Z,22.95
2022-11-13T09:13:01.993Z,23.77
2022-11-13T09:15:31.709Z,28.83
2022-11-13T09:18:00.664Z,28.88
2022-11-13T09:20:29.663Z,23.77
2022-11-13T09:23:02.440Z,24.50
2022-11-13T09:25:36.998Z,23.17
2022-11-13T09:28:06.565Z,24.35
2022-11-13T09:30:34.328Z,22.33
2022-11-13T09:33:01.813Z,22.50
2022-11-13T09:35:36.766Z,23.97
2022-11-13T09:38:11.619Z,22.85
2022-11-13T09:41:06.909Z,21.97
2022-11-13T09:43:38.096Z,25.57
2022-11-13T09:46:43.333Z,23.70
2022-11-13T09:49:25.775Z,18.33
2022-11-13T09:52:05.238Z,19.20
2022-11-13T09:54:34.196Z,23.10
2022-11-13T09:57:26.339Z,18.45
2022-11-13T10:00:03.454Z,18.13
2022-11-13T10:02:57.515Z,16.15
2022-11-13T10:05:43.152Z,14.67
2022-11-13T10:08:24.809Z,16.98
2022-11-13T10:11:32.955Z,14.40
2022-11-13T10:14:18.192Z,13.63
2022-11-13T10:17:38.623Z,16.27
2022-11-13T10:20:07.392Z,14.03
2022-11-13T10:22:34.751Z,11.07
2022-11-13T10:25:28.641Z,14.88
2022-11-13T10:28:11.377Z,16.13
2022-11-13T10:30:49.449Z,15.50
2022-11-13T10:33:23.396Z,15.02
2022-11-13T10:35:55.239Z,15.35
2022-11-13T10:38:40.401Z,16.13
2022-11-13T10:41:15.633Z,15.38
2022-11-13T10:44:02.221Z,15.30
2022-11-13T10:46:31.227Z,17.08
2022-11-13T10:48:59.179Z,17.58
2022-11-13T10:51:32.269Z,16.47
2022-11-13T10:53:59.943Z,19.42
2022-11-13T10:56:36.429Z,14.90
2022-11-13T10:59:19.129Z,17.33
2022-11-13T11:01:47.969Z,18.13
2022-11-13T11:04:24.597Z,16.87
2022-11-13T11:09:43.454Z,19.65
2022-11-13T11:12:30.417Z,15.90
2022-11-13T11:14:57.801Z,17.40
2022-11-13T11:17:59.414Z,15.32
2022-11-13T11:20:46.928Z,19.67
2022-11-13T11:23:34.642Z,17.70
2022-11-13T11:26:21.574Z,16.58
2022-11-13T11:29:08.666Z,16.98
2022-11-13T11:31:50.982Z,15.38
2022-11-13T11:34:28.888Z,21.45
2022-11-13T11:37:14.223Z,16.83
2022-11-13T11:39:51.655Z,14.68
2022-11-13T11:42:38.155Z,17.33
2022-11-13T11:45:26.348Z,16.08
2022-11-13T11:47:54.285Z,18.63
2022-11-13T11:51:09.520Z,16.05
2022-11-13T11:54:04.135Z,14.98
2022-11-13T11:56:41.998Z,14.57
2022-11-13T11:59:44.489Z,16.60
2022-11-13T12:02:53.578Z,14.35
2022-11-13T12:05:50.039Z,15.93
2022-11-13T12:08:47.795Z,16.60
2022-11-13T12:11:35.207Z,17.13
2022-11-13T12:14:25.151Z,19.02
2022-11-13T12:17:16.680Z,18.63
2022-11-13T12:20:22.512Z,17.88
2022-11-13T12:23:16.662Z,15.43
2022-11-13T12:26:06.158Z,17.30
2022-11-13T12:28:51.152Z,19.10
2022-11-13T12:31:47.883Z,19.13
2022-11-13T12:35:10.428Z,22.52
2022-11-13T12:38:06.238Z,18.58
2022-11-13T12:40:54.802Z,22.80
2022-11-13T12:43:50.969Z,18.23
2022-11-13T12:46:18.880Z,19.42
2022-11-13T12:48:48.268Z,18.45
2022-11-13T12:51:18.458Z,21.08
2022-11-13T12:53:52.311Z,17.85
2022-11-13T12:56:26.412Z,15.27
2022-11-13T13:02:07.329Z,17.80
2022-11-13T13:04:43.202Z,19.63
2022-11-13T13:07:43.496Z,19.35
2022-11-13T13:10:49.399Z,18.17
2022-11-13T13:13:30.990Z,17.77
2022-11-13T13:16:02.856Z,19.88
2022-11-13T13:18:39.242Z,19.20
2022-11-13T13:21:16.013Z,18.42
2022-11-13T13:23:53.444Z,18.05
2022-11-13T13:26:25.333Z,23.73
2022-11-13T13:29:02.152Z,19.08
2022-11-13T13:32:21.062Z,20.70
2022-11-13T13:35:26.582Z,20.75
2022-11-13T13:38:22.358Z,61.53
2022-11-13T13:41:18.019Z,27.98
2022-11-13T13:44:23.083Z,19.17
2022-11-13T13:46:50.997Z,25.58
2022-11-13T13:49:22.813Z,19.83
2022-11-13T13:51:56.947Z,19.58
2022-11-13T13:54:31.721Z,20.30
2022-11-13T13:56:59.208Z,23.50
2022-11-13T13:59:35.377Z,24.63
2022-11-13T14:02:13.638Z,18.23
2022-11-13T14:04:50.427Z,18.50
2022-11-13T14:07:30.575Z,18.30
2022-11-13T14:10:15.357Z,21.02
2022-11-13T14:12:46.873Z,20.08
2022-11-13T14:15:23.158Z,20.77
2022-11-13T14:17:50.210Z,19.67
2022-11-13T14:20:17.845Z,19.27
2022-11-13T14:22:55.249Z,21.60
2022-11-13T14:25:27.515Z,20.17
2022-11-13T14:27:54.576Z,20.67
2022-11-13T14:30:27.417Z,23.13
2022-11-13T14:32:55.220Z,20.00
2022-11-13T14:35:26.609Z,23.00
2022-11-13T14:37:55.069Z,23.33
2022-11-13T14:40:23.921Z,21.23
2022-11-13T14:42:58.736Z,21.80
2022-11-13T14:45:29.570Z,20.92
2022-11-13T14:48:21.279Z,19.77
2022-11-13T14:50:56.825Z,20.80
2022-11-13T14:54:03.813Z,23.17
2022-11-13T14:56:41.623Z,23.25
2022-11-13T14:59:27.924Z,21.13
2022-11-13T15:01:58.868Z,26.27
2022-11-13T15:04:26.304Z,19.93
2022-11-13T15:06:56.843Z,29.48
2022-11-13T15:09:25.567Z,28.25
2022-11-13T15:11:52.815Z,27.47
2022-11-13T15:14:21.997Z,21.97
2022-11-13T15:16:52.165Z,24.97
2022-11-13T15:19:39.413Z,26.50
2022-11-13T15:22:26.603Z,26.30
2022-11-13T15:24:54.466Z,25.50
2022-11-13T15:27:21.407Z,28.77
2022-11-13T15:29:48.579Z,22.60
2022-11-13T15:32:16.195Z,30.40
2022-11-13T15:34:43.661Z,23.87
2022-11-13T15:37:16.209Z,23.00
2022-11-13T15:39:43.294Z,27.43
2022-11-13T15:42:16.438Z,25.13
2022-11-13T15:44:43.594Z,24.27
2022-11-13T15:47:25.083Z,28.07
2022-11-13T15:50:12.462Z,28.23
2022-11-13T15:52:42.623Z,26.50
2022-11-13T15:55:29.831Z,28.03
2022-11-13T15:57:58.454Z,25.53
2022-11-13T16:00:28.186Z,29.33
2022-11-13T16:02:57.097Z,30.27
2022-11-13T16:05:29.401Z,26.73
2022-11-13T16:07:56.972Z,26.60
2022-11-13T16:10:25.429Z,31.30
2022-11-13T16:12:53.680Z,34.73
2022-11-13T16:15:21.627Z,30.53
2022-11-13T16:18:01.926Z,29.90
2022-11-13T16:20:28.836Z,32.83
2022-11-13T16:22:55.780Z,33.63
2022-11-13T16:25:23.196Z,30.83
2022-11-13T16:27:50.906Z,27.77
2022-11-13T16:30:21.897Z,32.30
2022-11-13T16:32:49.145Z,34.73
2022-11-13T16:35:18.427Z,27.77
2022-11-13T16:37:45.888Z,28.33
2022-11-13T16:40:25.569Z,32.77
2022-11-13T16:42:53.272Z,31.45
2022-11-13T16:45:21.659Z,30.87
2022-11-13T16:47:50.530Z,30.43
2022-11-13T16:50:30.060Z,30.88
2022-11-13T16:52:57.026Z,34.13
2022-11-13T16:55:24.445Z,27.73
2022-11-13T16:57:51.449Z,32.40
2022-11-13T17:00:20.393Z,35.37
2022-11-13T17:02:50.750Z,37.42
2022-11-13T17:05:18.453Z,36.73
2022-11-13T17:07:45.836Z,35.73
2022-11-13T17:10:32.676Z,32.97
2022-11-13T17:13:00.876Z,30.47
2022-11-13T17:15:27.952Z,30.70
2022-11-13T17:17:59.770Z,27.47
2022-11-13T17:20:26.930Z,27.53
2022-11-13T17:22:54.449Z,27.93
2022-11-13T17:25:23.322Z,30.03
2022-11-13T17:27:50.256Z,27.33
2022-11-13T17:30:17.569Z,24.53
2022-11-13T17:32:44.598Z,26.17
2022-11-13T17:35:13.099Z,27.97
2022-11-13T17:37:40.391Z,27.77
2022-11-13T17:40:09.197Z,26.63
2022-11-13T17:42:36.118Z,25.47
2022-11-13T17:45:03.208Z,28.93
2022-11-13T17:47:30.137Z,29.47
2022-11-13T17:50:01.165Z,28.13
2022-11-13T17:52:31.100Z,27.37
2022-11-13T17:54:58.091Z,25.57
2022-11-13T17:57:27.083Z,27.23
2022-11-13T17:59:54.343Z,30.90
2022-11-13T18:02:21.320Z,31.13
2022-11-13T18:04:48.349Z,29.17
2022-11-13T18:07:15.433Z,29.20
2022-11-13T18:09:42.765Z,28.67
2022-11-13T18:12:09.690Z,31.77
2022-11-13T18:14:36.610Z,33.70
2022-11-13T18:17:03.524Z,37.88
2022-11-13T18:19:30.586Z,41.83
2022-11-13T18:21:57.542Z,40.47
2022-11-13T18:27:19.483Z,39.67
2022-11-13T18:29:46.420Z,42.40
2022-11-13T18:32:13.379Z,40.63
2022-11-13T18:34:40.291Z,41.07
2022-11-13T18:37:07.289Z,37.97
2022-11-13T18:39:34.203Z,42.27
2022-11-13T18:42:01.271Z,47.27
2022-11-13T18:44:28.264Z,41.57
2022-11-13T18:46:55.202Z,44.10
2022-11-13T18:49:22.251Z,44.73
2022-11-13T18:51:49.223Z,46.30
2022-11-13T18:54:16.232Z,43.00
2022-11-13T18:56:43.176Z,49.83
2022-11-13T18:59:10.795Z,45.50
2022-11-13T19:01:40.006Z,45.03
2022-11-13T19:04:22.914Z,46.10
2022-11-13T19:06:55.037Z,48.70
2022-11-13T19:09:22.081Z,41.33
2022-11-13T19:16:19.514Z,47.07
2022-11-13T19:18:58.601Z,48.27
2022-11-13T19:21:29.911Z,48.60
2022-11-13T19:23:58.587Z,46.43
2022-11-13T19:26:26.212Z,45.20
2022-11-13T19:28:54.713Z,43.67
2022-11-13T19:31:25.204Z,46.27
2022-11-13T19:34:01.495Z,40.07
2022-11-13T19:36:31.484Z,43.10
2022-11-13T19:39:00.156Z,39.80
2022-11-13T19:41:29.645Z,43.87
2022-11-13T19:43:59.794Z,38.67
2022-11-13T19:46:28.310Z,46.70
2022-11-13T19:48:55.344Z,46.30
2022-11-13T19:51:25.257Z,50.37
2022-11-13T19:53:58.361Z,44.85
2022-11-13T19:56:30.645Z,43.27
2022-11-13T19:58:57.827Z,45.97
2022-11-13T20:01:27.921Z,46.23
2022-11-13T20:03:58.178Z,43.77
2022-11-13T20:06:26.187Z,42.73
2022-11-13T20:08:53.117Z,47.97
2022-11-13T20:11:20.473Z,45.70
2022-11-13T20:13:47.623Z,45.60
2022-11-13T20:16:16.689Z,41.93
2022-11-13T20:18:44.789Z,40.43
2022-11-13T20:21:12.217Z,36.30
2022-11-13T20:23:39.826Z,33.60
2022-11-13T20:26:12.176Z,37.47
2022-11-13T20:28:39.238Z,38.07
2022-11-13T20:31:23.989Z,38.73
2022-11-13T20:33:53.824Z,46.90
2022-11-13T20:36:22.385Z,34.30
2022-11-13T20:38:54.749Z,33.33
2022-11-13T20:41:22.243Z,30.27
2022-11-13T20:43:50.166Z,32.33
2022-11-13T20:46:19.428Z,30.87
2022-11-13T20:48:46.780Z,34.30
2022-11-13T20:51:16.063Z,40.20
2022-11-13T20:53:43.593Z,30.23
2022-11-13T20:56:11.103Z,29.10
2022-11-13T20:58:38.751Z,34.17
2022-11-13T21:01:20.820Z,31.30
2022-11-13T21:03:48.863Z,32.60
2022-11-13T21:06:19.501Z,36.33
2022-11-13T21:08:47.054Z,32.10
2022-11-13T21:11:19.109Z,37.30
2022-11-13T21:13:47.458Z,29.67
2022-11-13T21:16:14.774Z,32.67
2022-11-13T21:18:42.396Z,33.90
2022-11-13T21:21:12.799Z,35.23
2022-11-13T21:23:40.212Z,34.83
2022-11-13T21:26:09.177Z,37.10
2022-11-13T21:28:36.811Z,33.93
2022-11-13T21:31:06.283Z,36.73
2022-11-13T21:33:38.442Z,36.33
2022-11-13T21:36:16.289Z,33.77
2022-11-13T21:38:43.818Z,33.77
2022-11-13T21:41:21.937Z,32.30
2022-11-13T21:44:00.007Z,32.43
2022-11-13T21:46:31.063Z,35.20
2022-11-13T21:49:05.392Z,31.20
2022-11-13T21:51:34.694Z,33.63
2022-11-13T21:54:01.751Z,33.40
2022-11-13T21:56:30.834Z,34.17
2022-11-13T21:58:58.038Z,33.67
2022-11-13T22:01:25.948Z,40.17
2022-11-13T22:03:53.684Z,38.03
2022-11-13T22:06:28.443Z,33.20
2022-11-13T22:09:06.409Z,37.40
2022-11-13T22:11:36.226Z,34.00
2022-11-13T22:14:04.034Z,35.90
2022-11-13T22:16:34.324Z,31.37
2022-11-13T22:19:05.846Z,32.53
2022-11-13T22:21:33.189Z,28.63
2022-11-13T22:24:00.806Z,26.07
2022-11-13T22:26:29.740Z,27.93
2022-11-13T22:28:58.596Z,26.73
2022-11-13T22:31:30.770Z,25.00
2022-11-13T22:33:58.376Z,23.43
2022-11-13T22:36:36.566Z,21.63
2022-11-13T22:39:04.825Z,24.10
2022-11-13T22:41:35.244Z,20.47
2022-11-13T22:44:08.085Z,21.30
2022-11-13T22:46:36.656Z,23.17
2022-11-13T22:49:05.871Z,19.30
2022-11-13T22:51:41.140Z,24.50
2022-11-13T22:54:12.750Z,20.07
2022-11-13T22:56:41.240Z,23.07
2022-11-13T22:59:12.020Z,22.87
2022-11-13T23:01:41.356Z,18.73
2022-11-13T23:04:13.199Z,18.50
2022-11-13T23:06:40.157Z,16.20
2022-11-13T23:09:07.496Z,18.43
2022-11-13T23:11:40.463Z,19.67
2022-11-13T23:14:12.335Z,18.53
2022-11-13T23:16:39.683Z,19.33
2022-11-13T23:19:07.025Z,18.77
2022-11-13T23:21:34.392Z,17.57
2022-11-13T23:24:01.715Z,20.03
2022-11-13T23:26:29.406Z,17.73
2022-11-13T23:28:56.972Z,15.53
2022-11-13T23:31:24.169Z,24.17
2022-11-13T23:33:51.170Z,19.07
2022-11-13T23:36:18.290Z,22.97
2022-11-13T23:38:45.673Z,21.63
2022-11-13T23:41:13.462Z,21.87
2022-11-13T23:44:07.656Z,25.30
2022-11-13T23:46:27.519Z,23.00
2022-11-13T23:48:54.497Z,24.13
2022-11-13T23:51:21.468Z,24.07
2022-11-13T23:53:48.438Z,25.43
2022-11-13T23:56:15.425Z,27.77
2022-11-13T23:58:42.438Z,22.20
